createdAt,value
2023-05-01T00:00:28.091Z,1001.57
2023-05-01T00:00:58.103Z,1001.567
2023-05-01T00:01:28.102Z,1001.558
2023-05-01T00:01:58.091Z,1001.545
2023-05-01T00:02:28.136Z,1001.554
2023-05-01T00:02:58.180Z,1001.555
2023-05-01T00:03:28.409Z,1001.549
2023-05-01T00:03:58.407Z,1001.559
2023-05-01T00:04:28.147Z,1001.578
2023-05-01T00:04:58.122Z,1001.586
2023-05-01T00:05:28.094Z,1001.59
2023-05-01T00:05:58.131Z,1001.598
2023-05-01T00:06:28.204Z,1001.602
2023-05-01T00:06:58.111Z,1001.614
2023-05-01T00:07:28.097Z,1001.613
2023-05-01T00:07:58.103Z,1001.623
2023-05-01T00:08:28.100Z,1001.626
2023-05-01T00:08:58.091Z,1001.63
2023-05-01T00:09:28.097Z,1001.648
2023-05-01T00:09:58.415Z,1001.656
2023-05-01T00:10:28.095Z,1001.645
2023-05-01T00:10:58.096Z,1001.643
2023-05-01T00:11:28.094Z,1001.645
2023-05-01T00:11:58.097Z,1001.643
2023-05-01T00:12:28.099Z,1001.646
2023-05-01T00:12:58.106Z,1001.649
2023-05-01T00:13:28.108Z,1001.647
2023-05-01T00:13:58.096Z,1001.642
2023-05-01T00:14:28.098Z,1001.652
2023-05-01T00:14:58.096Z,1001.632
2023-05-01T00:15:28.103Z,1001.629
2023-05-01T00:15:58.161Z,1001.635
2023-05-01T00:16:28.176Z,1001.63
2023-05-01T00:16:58.321Z,1001.619
2023-05-01T00:17:28.196Z,1001.625
2023-05-01T00:17:58.131Z,1001.626
2023-05-01T00:18:28.102Z,1001.626
2023-05-01T00:18:58.097Z,1001.621
2023-05-01T00:19:28.096Z,1001.622
2023-05-01T00:19:58.486Z,1001.624
2023-05-01T00:20:28.124Z,1001.609
2023-05-01T00:20:58.101Z,1001.611
2023-05-01T00:21:28.097Z,1001.607
2023-05-01T00:21:58.096Z,1001.602
2023-05-01T00:22:28.102Z,1001.611
2023-05-01T00:22:58.107Z,1001.605
2023-05-01T00:23:28.098Z,1001.609
2023-05-01T00:23:58.098Z,1001.607
2023-05-01T00:24:28.100Z,1001.61
2023-05-01T00:24:58.096Z,1001.612
2023-05-01T00:25:28.108Z,1001.614
2023-05-01T00:25:58.113Z,1001.608
2023-05-01T00:26:28.099Z,1001.614
2023-05-01T00:26:58.095Z,1001.624
2023-05-01T00:27:28.099Z,1001.622
2023-05-01T00:27:58.102Z,1001.62
2023-05-01T00:28:28.097Z,1001.613
2023-05-01T00:28:58.099Z,1001.609
2023-05-01T00:29:28.106Z,1001.612
2023-05-01T00:29:58.375Z,1001.62
2023-05-01T00:30:28.106Z,1001.604
2023-05-01T00:30:58.099Z,1001.603
2023-05-01T00:31:28.143Z,1001.604
2023-05-01T00:31:58.137Z,1001.602
2023-05-01T00:32:28.147Z,1001.605
2023-05-01T00:32:58.126Z,1001.618
2023-05-01T00:33:28.112Z,1001.627
2023-05-01T00:33:58.106Z,1001.633
2023-05-01T00:34:28.110Z,1001.642
2023-05-01T00:34:58.111Z,1001.648
2023-05-01T00:35:28.113Z,1001.654
2023-05-01T00:35:58.103Z,1001.659
2023-05-01T00:36:28.110Z,1001.666
2023-05-01T00:36:58.108Z,1001.656
2023-05-01T00:37:28.107Z,1001.647
2023-05-01T00:37:58.117Z,1001.638
2023-05-01T00:38:28.107Z,1001.638
2023-05-01T00:38:58.114Z,1001.634
2023-05-01T00:39:28.108Z,1001.63
2023-05-01T00:39:58.454Z,1001.64
2023-05-01T00:40:28.148Z,1001.642
2023-05-01T00:40:58.106Z,1001.643
2023-05-01T00:41:28.117Z,1001.647
2023-05-01T00:41:58.109Z,1001.65
2023-05-01T00:42:28.108Z,1001.644
2023-05-01T00:42:58.103Z,1001.653
2023-05-01T00:43:28.114Z,1001.667
2023-05-01T00:43:58.108Z,1001.67
2023-05-01T00:44:28.106Z,1001.668
2023-05-01T00:44:58.107Z,1001.67
2023-05-01T00:45:28.122Z,1001.667
2023-05-01T00:45:58.194Z,1001.661
2023-05-01T00:46:28.133Z,1001.662
2023-05-01T00:46:58.110Z,1001.662
2023-05-01T00:47:28.153Z,1001.665
2023-05-01T00:47:58.236Z,1001.66
2023-05-01T00:48:28.109Z,1001.665
2023-05-01T00:48:58.129Z,1001.68
2023-05-01T00:49:28.113Z,1001.693
2023-05-01T00:49:58.249Z,1001.686
2023-05-01T00:50:28.122Z,1001.677
2023-05-01T00:50:58.120Z,1001.692
2023-05-01T00:51:28.113Z,1001.692
2023-05-01T00:51:58.113Z,1001.679
2023-05-01T00:52:28.113Z,1001.682
2023-05-01T00:52:58.150Z,1001.681
2023-05-01T00:53:28.120Z,1001.666
2023-05-01T00:53:58.115Z,1001.67
2023-05-01T00:54:28.115Z,1001.672
2023-05-01T00:54:58.113Z,1001.672
2023-05-01T00:55:28.112Z,1001.675
2023-05-01T00:55:58.116Z,1001.681
2023-05-01T00:56:28.121Z,1001.69
2023-05-01T00:56:58.117Z,1001.696
2023-05-01T00:57:28.112Z,1001.684
2023-05-01T00:57:58.117Z,1001.685
2023-05-01T00:58:28.117Z,1001.69
2023-05-01T00:58:58.111Z,1001.692
2023-05-01T00:59:28.115Z,1001.688
2023-05-01T00:59:58.299Z,1001.705
2023-05-01T01:00:28.120Z,1001.709
2023-05-01T01:00:58.196Z,1001.719
2023-05-01T01:01:28.170Z,1001.727
2023-05-01T01:01:58.118Z,1001.724
2023-05-01T01:02:28.183Z,1001.73
2023-05-01T01:02:58.175Z,1001.734
2023-05-01T01:03:28.119Z,1001.725
2023-05-01T01:03:58.183Z,1001.735
2023-05-01T01:04:28.172Z,1001.743
2023-05-01T01:04:58.376Z,1001.742
2023-05-01T01:05:28.201Z,1001.768
2023-05-01T01:05:58.139Z,1001.792
2023-05-01T01:06:28.136Z,1001.809
2023-05-01T01:06:58.118Z,1001.821
2023-05-01T01:07:28.116Z,1001.838
2023-05-01T01:07:58.145Z,1001.857
2023-05-01T01:08:29.126Z,1001.87
2023-05-01T01:08:58.114Z,1001.88
2023-05-01T01:09:28.128Z,1001.891
2023-05-01T01:09:58.383Z,1001.923
2023-05-01T01:10:28.121Z,1001.942
2023-05-01T01:10:58.119Z,1001.956
2023-05-01T01:11:28.116Z,1001.97
2023-05-01T01:11:58.118Z,1001.985
2023-05-01T01:12:28.132Z,1002.01
2023-05-01T01:12:58.119Z,1002.007
2023-05-01T01:13:28.121Z,1002.009
2023-05-01T01:13:58.124Z,1002.006
2023-05-01T01:14:28.134Z,1002
2023-05-01T01:14:58.120Z,1002
2023-05-01T01:15:28.114Z,1001.985
2023-05-01T01:15:58.119Z,1001.981
2023-05-01T01:16:28.152Z,1001.968
2023-05-01T01:16:58.163Z,1001.966
2023-05-01T01:17:28.148Z,1001.949
2023-05-01T01:17:58.133Z,1001.931
2023-05-01T01:18:28.116Z,1001.923
2023-05-01T01:18:58.132Z,1001.914
2023-05-01T01:19:28.122Z,1001.906
2023-05-01T01:19:58.314Z,1001.905
2023-05-01T01:20:28.130Z,1001.897
2023-05-01T01:20:58.116Z,1001.907
2023-05-01T01:21:28.139Z,1001.903
2023-05-01T01:21:58.116Z,1001.914
2023-05-01T01:22:28.137Z,1001.907
2023-05-01T01:22:58.119Z,1001.91
2023-05-01T01:23:28.125Z,1001.922
2023-05-01T01:23:58.116Z,1001.93
2023-05-01T01:24:28.130Z,1001.927
2023-05-01T01:24:58.128Z,1001.921
2023-05-01T01:25:28.128Z,1001.923
2023-05-01T01:25:58.117Z,1001.925
2023-05-01T01:26:28.124Z,1001.942
2023-05-01T01:26:58.120Z,1001.963
2023-05-01T01:27:28.128Z,1001.996
2023-05-01T01:27:58.137Z,1001.991
2023-05-01T01:28:28.123Z,1001.998
2023-05-01T01:28:58.119Z,1002.009
2023-05-01T01:29:28.121Z,1002.026
2023-05-01T01:29:58.356Z,1002.038
2023-05-01T01:30:28.118Z,1002.04
2023-05-01T01:30:58.150Z,1002.048
2023-05-01T01:31:28.166Z,1002.05
2023-05-01T01:31:58.129Z,1002.054
2023-05-01T01:32:28.151Z,1002.054
2023-05-01T01:32:58.163Z,1002.041
2023-05-01T01:33:28.121Z,1002.032
2023-05-01T01:33:58.135Z,1002.038
2023-05-01T01:34:28.147Z,1002.039
2023-05-01T01:34:58.120Z,1002.049
2023-05-01T01:35:28.139Z,1002.061
2023-05-01T01:35:58.130Z,1002.058
2023-05-01T01:36:28.136Z,1002.067
2023-05-01T01:36:58.124Z,1002.073
2023-05-01T01:37:28.126Z,1002.063
2023-05-01T01:37:58.121Z,1002.059
2023-05-01T01:38:28.123Z,1002.07
2023-05-01T01:38:58.131Z,1002.057
2023-05-01T01:39:28.131Z,1002.054
2023-05-01T01:39:58.352Z,1002.076
2023-05-01T01:40:28.130Z,1002.092
2023-05-01T01:40:58.128Z,1002.087
2023-05-01T01:41:28.122Z,1002.105
2023-05-01T01:41:58.121Z,1002.12
2023-05-01T01:42:28.131Z,1002.115
2023-05-01T01:42:58.134Z,1002.114
2023-05-01T01:43:28.128Z,1002.114
2023-05-01T01:43:58.128Z,1002.117
2023-05-01T01:44:28.129Z,1002.13
2023-05-01T01:44:58.130Z,1002.136
2023-05-01T01:45:28.128Z,1002.135
2023-05-01T01:45:58.164Z,1002.132
2023-05-01T01:46:28.183Z,1002.133
2023-05-01T01:46:58.129Z,1002.135
2023-05-01T01:47:28.245Z,1002.146
2023-05-01T01:47:58.189Z,1002.147
2023-05-01T01:48:28.129Z,1002.143
2023-05-01T01:48:58.131Z,1002.157
2023-05-01T01:49:28.138Z,1002.141
2023-05-01T01:49:58.255Z,1002.131
2023-05-01T01:50:28.132Z,1002.13
2023-05-01T01:50:58.151Z,1002.139
2023-05-01T01:51:28.136Z,1002.138
2023-05-01T01:51:58.132Z,1002.125
2023-05-01T01:52:28.130Z,1002.114
2023-05-01T01:52:58.128Z,1002.105
2023-05-01T01:53:28.133Z,1002.127
2023-05-01T01:53:58.128Z,1002.132
2023-05-01T01:54:28.135Z,1002.118
2023-05-01T01:54:58.130Z,1002.107
2023-05-01T01:55:28.130Z,1002.095
2023-05-01T01:55:58.132Z,1002.103
2023-05-01T01:56:28.138Z,1002.11
2023-05-01T01:56:58.127Z,1002.109
2023-05-01T01:57:28.131Z,1002.11
2023-05-01T01:57:58.136Z,1002.127
2023-05-01T01:58:28.132Z,1002.132
2023-05-01T01:58:58.134Z,1002.129
2023-05-01T01:59:28.137Z,1002.127
2023-05-01T01:59:58.263Z,1002.15
2023-05-01T02:00:28.136Z,1002.173
2023-05-01T02:00:58.127Z,1002.184
2023-05-01T02:01:28.163Z,1002.167
2023-05-01T02:01:58.197Z,1002.153
2023-05-01T02:02:28.294Z,1002.165
2023-05-01T02:02:58.189Z,1002.177
2023-05-01T02:03:28.269Z,1002.192
2023-05-01T02:03:58.272Z,1002.179
2023-05-01T02:04:28.134Z,1002.172
2023-05-01T02:04:58.139Z,1002.181
2023-05-01T02:05:28.145Z,1002.195
2023-05-01T02:05:58.168Z,1002.177
2023-05-01T02:06:28.219Z,1002.172
2023-05-01T02:06:58.150Z,1002.176
2023-05-01T02:07:28.136Z,1002.194
2023-05-01T02:07:58.132Z,1002.206
2023-05-01T02:08:28.142Z,1002.213
2023-05-01T02:08:58.137Z,1002.222
2023-05-01T02:09:28.142Z,1002.213
2023-05-01T02:09:58.317Z,1002.215
2023-05-01T02:10:28.137Z,1002.234
2023-05-01T02:10:59.758Z,1002.24
2023-05-01T02:11:29.118Z,1002.233
2023-05-01T02:11:58.137Z,1002.235
2023-05-01T02:12:28.150Z,1002.215
2023-05-01T02:12:58.137Z,1002.217
2023-05-01T02:13:28.136Z,1002.217
2023-05-01T02:13:58.145Z,1002.215
2023-05-01T02:14:28.145Z,1002.198
2023-05-01T02:14:58.147Z,1002.178
2023-05-01T02:15:28.144Z,1002.173
2023-05-01T02:15:58.176Z,1002.188
2023-05-01T02:16:28.175Z,1002.187
2023-05-01T02:16:58.138Z,1002.193
2023-05-01T02:17:28.278Z,1002.185
2023-05-01T02:17:58.167Z,1002.173
2023-05-01T02:18:28.149Z,1002.142
2023-05-01T02:18:58.136Z,1002.126
2023-05-01T02:19:28.148Z,1002.131
2023-05-01T02:19:58.295Z,1002.136
2023-05-01T02:20:28.153Z,1002.135
2023-05-01T02:20:58.145Z,1002.123
2023-05-01T02:21:28.161Z,1002.087
2023-05-01T02:21:58.166Z,1002.088
2023-05-01T02:22:28.137Z,1002.116
2023-05-01T02:22:58.140Z,1002.112
2023-05-01T02:23:28.143Z,1002.097
2023-05-01T02:23:58.140Z,1002.073
2023-05-01T02:24:28.144Z,1002.056
2023-05-01T02:24:58.155Z,1002.062
2023-05-01T02:25:29.541Z,1002.08
2023-05-01T02:25:58.149Z,1002.078
2023-05-01T02:26:28.148Z,1002.066
2023-05-01T02:26:58.142Z,1002.056
2023-05-01T02:27:28.144Z,1002.065
2023-05-01T02:27:58.155Z,1002.085
2023-05-01T02:28:28.151Z,1002.088
2023-05-01T02:28:58.141Z,1002.084
2023-05-01T02:29:28.188Z,1002.101
2023-05-01T02:29:58.328Z,1002.123
2023-05-01T02:30:28.147Z,1002.117
2023-05-01T02:30:58.145Z,1002.115
2023-05-01T02:31:28.179Z,1002.125
2023-05-01T02:31:58.231Z,1002.148
2023-05-01T02:32:28.151Z,1002.16
2023-05-01T02:32:58.186Z,1002.143
2023-05-01T02:33:28.151Z,1002.124
2023-05-01T02:33:58.150Z,1002.105
2023-05-01T02:34:28.167Z,1002.119
2023-05-01T02:34:58.160Z,1002.124
2023-05-01T02:35:28.153Z,1002.116
2023-05-01T02:35:58.154Z,1002.082
2023-05-01T02:36:28.157Z,1002.051
2023-05-01T02:36:58.162Z,1002.057
2023-05-01T02:37:28.187Z,1002.071
2023-05-01T02:37:58.158Z,1002.07
2023-05-01T02:38:28.151Z,1002.075
2023-05-01T02:38:58.146Z,1002.041
2023-05-01T02:39:28.149Z,1002.02
2023-05-01T02:39:58.421Z,1002.01
2023-05-01T02:40:28.147Z,1002.018
2023-05-01T02:40:58.162Z,1002.036
2023-05-01T02:41:28.162Z,1002.022
2023-05-01T02:41:58.147Z,1002.013
2023-05-01T02:42:28.153Z,1002.005
2023-05-01T02:42:58.154Z,1001.982
2023-05-01T02:43:28.154Z,1001.967
2023-05-01T02:43:58.160Z,1001.982
2023-05-01T02:44:28.149Z,1001.974
2023-05-01T02:44:58.158Z,1001.966
2023-05-01T02:45:28.183Z,1001.955
2023-05-01T02:45:58.225Z,1001.973
2023-05-01T02:46:28.225Z,1001.977
2023-05-01T02:46:58.222Z,1001.984
2023-05-01T02:47:28.281Z,1001.969
2023-05-01T02:47:58.172Z,1001.979
2023-05-01T02:48:28.170Z,1001.984
2023-05-01T02:48:58.153Z,1001.98
2023-05-01T02:49:28.151Z,1001.959
2023-05-01T02:49:58.428Z,1001.966
2023-05-01T02:50:28.162Z,1001.94
2023-05-01T02:50:58.169Z,1001.916
2023-05-01T02:51:28.160Z,1001.942
2023-05-01T02:51:58.151Z,1001.964
2023-05-01T02:52:28.159Z,1001.967
2023-05-01T02:52:58.153Z,1001.962
2023-05-01T02:53:28.156Z,1001.972
2023-05-01T02:53:58.151Z,1001.986
2023-05-01T02:54:28.159Z,1001.99
2023-05-01T02:54:58.153Z,1001.986
2023-05-01T02:55:28.165Z,1001.992
2023-05-01T02:55:58.154Z,1002.005
2023-05-01T02:56:28.164Z,1001.996
2023-05-01T02:56:58.156Z,1002.008
2023-05-01T02:57:28.158Z,1002.027
2023-05-01T02:57:58.166Z,1002.034
2023-05-01T02:58:28.160Z,1002.051
2023-05-01T02:58:58.153Z,1002.049
2023-05-01T02:59:28.158Z,1002.062
2023-05-01T02:59:58.338Z,1002.078
2023-05-01T03:00:28.164Z,1002.084
2023-05-01T03:00:58.253Z,1002.082
2023-05-01T03:01:28.271Z,1002.084
2023-05-01T03:01:58.160Z,1002.085
2023-05-01T03:02:28.156Z,1002.072
2023-05-01T03:02:58.205Z,1002.086
2023-05-01T03:03:28.158Z,1002.088
2023-05-01T03:03:58.198Z,1002.067
2023-05-01T03:04:28.200Z,1002.064
2023-05-01T03:04:58.158Z,1002.05
2023-05-01T03:05:28.170Z,1002.031
2023-05-01T03:05:58.204Z,1002.029
2023-05-01T03:06:28.260Z,1002.036
2023-05-01T03:06:58.156Z,1002.039
2023-05-01T03:07:28.157Z,1002.038
2023-05-01T03:07:58.155Z,1002.027
2023-05-01T03:08:28.158Z,1002.037
2023-05-01T03:08:58.169Z,1002.026
2023-05-01T03:09:28.175Z,1002.034
2023-05-01T03:09:58.286Z,1002.031
2023-05-01T03:10:28.159Z,1002.03
2023-05-01T03:10:58.161Z,1002.022
2023-05-01T03:11:28.164Z,1002.021
2023-05-01T03:11:58.161Z,1002.006
2023-05-01T03:12:28.160Z,1002.001
2023-05-01T03:12:58.167Z,1002.002
2023-05-01T03:13:28.169Z,1001.999
2023-05-01T03:13:58.161Z,1002.004
2023-05-01T03:14:28.163Z,1001.993
2023-05-01T03:14:58.178Z,1001.99
2023-05-01T03:15:28.172Z,1001.988
2023-05-01T03:15:58.219Z,1002.005
2023-05-01T03:16:28.248Z,1001.993
2023-05-01T03:16:58.158Z,1002.003
2023-05-01T03:17:28.180Z,1002.017
2023-05-01T03:17:58.209Z,1002.008
2023-05-01T03:18:28.160Z,1002.008
2023-05-01T03:18:58.161Z,1002.004
2023-05-01T03:19:28.192Z,1002.015
2023-05-01T03:19:58.320Z,1002.036
2023-05-01T03:20:28.166Z,1002.046
2023-05-01T03:20:58.174Z,1002.054
2023-05-01T03:21:28.181Z,1002.065
2023-05-01T03:21:58.166Z,1002.082
2023-05-01T03:22:28.159Z,1002.081
2023-05-01T03:22:58.168Z,1002.092
2023-05-01T03:23:28.157Z,1002.101
2023-05-01T03:23:58.162Z,1002.101
2023-05-01T03:24:28.171Z,1002.095
2023-05-01T03:24:58.162Z,1002.08
2023-05-01T03:25:28.167Z,1002.08
2023-05-01T03:25:58.162Z,1002.068
2023-05-01T03:26:28.175Z,1002.058
2023-05-01T03:26:58.175Z,1002.052
2023-05-01T03:27:28.167Z,1002.059
2023-05-01T03:27:58.168Z,1002.047
2023-05-01T03:28:28.162Z,1002.048
2023-05-01T03:28:58.169Z,1002.032
2023-05-01T03:29:28.165Z,1002.009
2023-05-01T03:29:58.307Z,1001.98
2023-05-01T03:30:28.162Z,1001.965
2023-05-01T03:30:58.171Z,1001.963
2023-05-01T03:31:28.219Z,1001.962
2023-05-01T03:31:58.183Z,1001.958
2023-05-01T03:32:28.283Z,1001.96
2023-05-01T03:32:58.194Z,1001.954
2023-05-01T03:33:28.182Z,1001.943
2023-05-01T03:33:58.179Z,1001.931
2023-05-01T03:34:28.172Z,1001.925
2023-05-01T03:34:58.206Z,1001.923
2023-05-01T03:35:28.322Z,1001.913
2023-05-01T03:35:58.168Z,1001.9
2023-05-01T03:36:28.168Z,1001.899
2023-05-01T03:36:58.167Z,1001.9
2023-05-01T03:37:28.175Z,1001.905
2023-05-01T03:37:58.196Z,1001.912
2023-05-01T03:38:28.170Z,1001.909
2023-05-01T03:38:58.174Z,1001.912
2023-05-01T03:39:28.166Z,1001.907
2023-05-01T03:39:58.430Z,1001.897
2023-05-01T03:40:28.173Z,1001.907
2023-05-01T03:40:58.173Z,1001.905
2023-05-01T03:41:28.165Z,1001.885
2023-05-01T03:41:58.172Z,1001.878
2023-05-01T03:42:28.198Z,1001.858
2023-05-01T03:42:58.162Z,1001.836
2023-05-01T03:43:28.174Z,1001.832
2023-05-01T03:43:58.173Z,1001.829
2023-05-01T03:44:28.176Z,1001.827
2023-05-01T03:44:58.173Z,1001.821
2023-05-01T03:45:28.165Z,1001.815
2023-05-01T03:45:58.193Z,1001.811
2023-05-01T03:46:28.217Z,1001.82
2023-05-01T03:46:58.167Z,1001.811
2023-05-01T03:47:28.191Z,1001.822
2023-05-01T03:47:58.204Z,1001.823
2023-05-01T03:48:28.173Z,1001.832
2023-05-01T03:48:58.166Z,1001.836
2023-05-01T03:49:28.173Z,1001.823
2023-05-01T03:49:58.415Z,1001.813
2023-05-01T03:50:28.170Z,1001.828
2023-05-01T03:50:58.181Z,1001.834
2023-05-01T03:51:28.188Z,1001.859
2023-05-01T03:51:58.185Z,1001.874
2023-05-01T03:52:28.178Z,1001.878
2023-05-01T03:52:58.170Z,1001.872
2023-05-01T03:53:28.193Z,1001.868
2023-05-01T03:53:58.167Z,1001.859
2023-05-01T03:54:28.183Z,1001.841
2023-05-01T03:54:58.172Z,1001.828
2023-05-01T03:55:28.174Z,1001.825
2023-05-01T03:55:58.178Z,1001.819
2023-05-01T03:56:28.184Z,1001.811
2023-05-01T03:56:58.177Z,1001.805
2023-05-01T03:57:28.182Z,1001.792
2023-05-01T03:57:58.177Z,1001.767
2023-05-01T03:58:28.189Z,1001.77
2023-05-01T03:58:58.171Z,1001.771
2023-05-01T03:59:28.179Z,1001.777
2023-05-01T03:59:58.464Z,1001.77
2023-05-01T04:00:28.179Z,1001.77
2023-05-01T04:00:58.174Z,1001.759
2023-05-01T04:01:28.192Z,1001.747
2023-05-01T04:01:58.262Z,1001.735
2023-05-01T04:02:28.363Z,1001.725
2023-05-01T04:02:58.370Z,1001.718
2023-05-01T04:03:28.274Z,1001.711
2023-05-01T04:03:58.210Z,1001.709
2023-05-01T04:04:28.198Z,1001.73
2023-05-01T04:04:58.180Z,1001.732
2023-05-01T04:05:28.176Z,1001.718
2023-05-01T04:05:58.202Z,1001.705
2023-05-01T04:06:28.254Z,1001.714
2023-05-01T04:06:58.181Z,1001.734
2023-05-01T04:07:28.207Z,1001.742
2023-05-01T04:07:58.198Z,1001.745
2023-05-01T04:08:28.183Z,1001.751
2023-05-01T04:08:58.181Z,1001.757
2023-05-01T04:09:28.184Z,1001.759
2023-05-01T04:09:58.344Z,1001.75
2023-05-01T04:10:28.197Z,1001.738
2023-05-01T04:10:58.176Z,1001.722
2023-05-01T04:11:28.199Z,1001.706
2023-05-01T04:11:58.184Z,1001.704
2023-05-01T04:12:28.190Z,1001.69
2023-05-01T04:12:58.198Z,1001.694
2023-05-01T04:13:28.180Z,1001.691
2023-05-01T04:13:58.191Z,1001.692
2023-05-01T04:14:28.203Z,1001.686
2023-05-01T04:14:58.180Z,1001.69
2023-05-01T04:15:28.184Z,1001.675
2023-05-01T04:15:58.250Z,1001.659
2023-05-01T04:16:28.236Z,1001.65
2023-05-01T04:16:58.188Z,1001.657
2023-05-01T04:17:28.189Z,1001.643
2023-05-01T04:17:58.185Z,1001.633
2023-05-01T04:18:28.208Z,1001.611
2023-05-01T04:18:58.183Z,1001.595
2023-05-01T04:19:28.196Z,1001.583
2023-05-01T04:19:58.541Z,1001.578
2023-05-01T04:20:28.190Z,1001.565
2023-05-01T04:20:58.203Z,1001.561
2023-05-01T04:21:28.191Z,1001.56
2023-05-01T04:21:58.196Z,1001.57
2023-05-01T04:22:28.210Z,1001.572
2023-05-01T04:22:58.194Z,1001.578
2023-05-01T04:23:28.186Z,1001.57
2023-05-01T04:23:58.182Z,1001.585
2023-05-01T04:24:28.208Z,1001.603
2023-05-01T04:24:58.184Z,1001.612
2023-05-01T04:25:28.243Z,1001.612
2023-05-01T04:25:58.189Z,1001.611
2023-05-01T04:26:28.215Z,1001.622
2023-05-01T04:26:58.190Z,1001.621
2023-05-01T04:27:28.198Z,1001.611
2023-05-01T04:27:58.204Z,1001.612
2023-05-01T04:28:28.198Z,1001.592
2023-05-01T04:28:58.195Z,1001.573
2023-05-01T04:29:28.184Z,1001.55
2023-05-01T04:29:58.615Z,1001.538
2023-05-01T04:30:28.185Z,1001.509
2023-05-01T04:30:58.195Z,1001.49
2023-05-01T04:31:28.329Z,1001.475
2023-05-01T04:31:58.247Z,1001.463
2023-05-01T04:32:28.224Z,1001.458
2023-05-01T04:32:58.238Z,1001.457
2023-05-01T04:33:28.205Z,1001.457
2023-05-01T04:33:58.187Z,1001.452
2023-05-01T04:34:28.190Z,1001.465
2023-05-01T04:34:58.192Z,1001.468
2023-05-01T04:35:28.211Z,1001.459
2023-05-01T04:35:58.194Z,1001.457
2023-05-01T04:36:28.194Z,1001.448
2023-05-01T04:36:58.212Z,1001.448
2023-05-01T04:37:28.192Z,1001.44
2023-05-01T04:37:58.195Z,1001.438
2023-05-01T04:38:28.206Z,1001.446
2023-05-01T04:38:58.187Z,1001.457
2023-05-01T04:39:28.188Z,1001.48
2023-05-01T04:39:58.336Z,1001.498
2023-05-01T04:40:28.192Z,1001.511
2023-05-01T04:40:58.191Z,1001.483
2023-05-01T04:41:28.195Z,1001.471
2023-05-01T04:41:58.187Z,1001.454
2023-05-01T04:42:28.209Z,1001.435
2023-05-01T04:42:58.188Z,1001.416
2023-05-01T04:43:28.193Z,1001.403
2023-05-01T04:43:58.191Z,1001.382
2023-05-01T04:44:28.193Z,1001.365
2023-05-01T04:44:58.188Z,1001.364
2023-05-01T04:45:28.189Z,1001.371
2023-05-01T04:45:58.191Z,1001.37
2023-05-01T04:46:28.316Z,1001.379
2023-05-01T04:46:58.233Z,1001.382
2023-05-01T04:47:28.195Z,1001.385
2023-05-01T04:47:58.248Z,1001.404
2023-05-01T04:48:28.194Z,1001.394
2023-05-01T04:48:58.188Z,1001.375
2023-05-01T04:49:28.212Z,1001.356
2023-05-01T04:49:58.442Z,1001.345
2023-05-01T04:50:28.199Z,1001.341
2023-05-01T04:50:58.190Z,1001.344
2023-05-01T04:51:28.214Z,1001.338
2023-05-01T04:51:58.190Z,1001.336
2023-05-01T04:52:28.194Z,1001.367
2023-05-01T04:52:58.197Z,1001.393
2023-05-01T04:53:28.199Z,1001.407
2023-05-01T04:53:58.202Z,1001.416
2023-05-01T04:54:28.201Z,1001.439
2023-05-01T04:54:58.196Z,1001.435
2023-05-01T04:55:30.397Z,1001.432
2023-05-01T04:55:58.191Z,1001.427
2023-05-01T04:56:28.196Z,1001.43
2023-05-01T04:56:58.211Z,1001.44
2023-05-01T04:57:28.202Z,1001.446
2023-05-01T04:57:58.209Z,1001.444
2023-05-01T04:58:28.190Z,1001.449
2023-05-01T04:58:58.199Z,1001.449
2023-05-01T04:59:28.194Z,1001.461
2023-05-01T04:59:58.702Z,1001.472
2023-05-01T05:00:28.236Z,1001.481
2023-05-01T05:00:58.195Z,1001.486
2023-05-01T05:01:28.293Z,1001.478
2023-05-01T05:01:58.276Z,1001.479
2023-05-01T05:02:28.276Z,1001.457
2023-05-01T05:02:58.246Z,1001.439
2023-05-01T05:03:28.309Z,1001.434
2023-05-01T05:03:58.457Z,1001.424
2023-05-01T05:04:28.200Z,1001.42
2023-05-01T05:04:58.196Z,1001.409
2023-05-01T05:05:28.205Z,1001.385
2023-05-01T05:05:58.252Z,1001.377
2023-05-01T05:06:28.286Z,1001.361
2023-05-01T05:06:58.233Z,1001.363
2023-05-01T05:07:28.207Z,1001.369
2023-05-01T05:07:58.217Z,1001.36
2023-05-01T05:08:28.212Z,1001.371
2023-05-01T05:08:58.197Z,1001.365
2023-05-01T05:09:28.222Z,1001.366
2023-05-01T05:09:58.474Z,1001.366
2023-05-01T05:10:28.221Z,1001.352
2023-05-01T05:10:58.202Z,1001.351
2023-05-01T05:11:28.222Z,1001.334
2023-05-01T05:11:58.199Z,1001.32
2023-05-01T05:12:28.206Z,1001.309
2023-05-01T05:12:58.212Z,1001.296
2023-05-01T05:13:28.208Z,1001.293
2023-05-01T05:13:58.220Z,1001.28
2023-05-01T05:14:28.204Z,1001.26
2023-05-01T05:14:58.214Z,1001.242
2023-05-01T05:15:28.214Z,1001.222
2023-05-01T05:15:58.257Z,1001.193
2023-05-01T05:16:28.260Z,1001.191
2023-05-01T05:16:58.579Z,1001.192
2023-05-01T05:17:28.203Z,1001.184
2023-05-01T05:17:58.265Z,1001.176
2023-05-01T05:18:28.207Z,1001.177
2023-05-01T05:18:58.200Z,1001.177
2023-05-01T05:19:28.213Z,1001.171
2023-05-01T05:19:58.573Z,1001.153
2023-05-01T05:20:28.280Z,1001.14
2023-05-01T05:20:58.212Z,1001.132
2023-05-01T05:21:28.205Z,1001.12
2023-05-01T05:21:58.210Z,1001.112
2023-05-01T05:22:28.204Z,1001.134
2023-05-01T05:22:58.255Z,1001.152
2023-05-01T05:23:28.214Z,1001.149
2023-05-01T05:23:58.225Z,1001.13
2023-05-01T05:24:28.205Z,1001.126
2023-05-01T05:24:58.204Z,1001.123
2023-05-01T05:25:28.246Z,1001.108
2023-05-01T05:25:58.209Z,1001.095
2023-05-01T05:26:28.216Z,1001.066
2023-05-01T05:26:58.217Z,1001.044
2023-05-01T05:27:28.210Z,1001.034
2023-05-01T05:27:58.215Z,1001.035
2023-05-01T05:28:28.208Z,1001.031
2023-05-01T05:28:58.220Z,1001.018
2023-05-01T05:29:28.243Z,1000.998
2023-05-01T05:29:58.342Z,1000.96
2023-05-01T05:30:28.209Z,1000.954
2023-05-01T05:30:58.207Z,1000.959
2023-05-01T05:31:28.288Z,1000.977
2023-05-01T05:31:58.270Z,1000.993
2023-05-01T05:32:28.301Z,1000.995
2023-05-01T05:32:58.285Z,1000.987
2023-05-01T05:33:28.213Z,1000.982
2023-05-01T05:33:58.211Z,1000.988
2023-05-01T05:34:28.219Z,1000.99
2023-05-01T05:34:58.214Z,1000.984
2023-05-01T05:35:28.209Z,1000.987
2023-05-01T05:35:58.214Z,1001
2023-05-01T05:36:28.215Z,1000.99
2023-05-01T05:36:58.245Z,1000.983
2023-05-01T05:37:28.214Z,1000.957
2023-05-01T05:37:58.213Z,1000.954
2023-05-01T05:38:28.229Z,1000.938
2023-05-01T05:38:58.217Z,1000.92
2023-05-01T05:39:28.227Z,1000.917
2023-05-01T05:39:58.385Z,1000.945
2023-05-01T05:40:28.238Z,1000.93
2023-05-01T05:40:58.219Z,1000.918
2023-05-01T05:41:28.220Z,1000.906
2023-05-01T05:41:58.216Z,1000.89
2023-05-01T05:42:28.219Z,1000.871
2023-05-01T05:42:58.237Z,1000.843
2023-05-01T05:43:28.430Z,1000.822
2023-05-01T05:43:58.226Z,1000.815
2023-05-01T05:44:28.255Z,1000.803
2023-05-01T05:44:58.217Z,1000.814
2023-05-01T05:45:28.215Z,1000.815
2023-05-01T05:45:58.266Z,1000.789
2023-05-01T05:46:28.297Z,1000.781
2023-05-01T05:46:58.219Z,1000.763
2023-05-01T05:47:28.215Z,1000.744
2023-05-01T05:47:58.243Z,1000.727
2023-05-01T05:48:28.329Z,1000.725
2023-05-01T05:48:58.235Z,1000.715
2023-05-01T05:49:28.222Z,1000.701
2023-05-01T05:49:58.630Z,1000.679
2023-05-01T05:50:28.223Z,1000.672
2023-05-01T05:50:58.219Z,1000.668
2023-05-01T05:51:28.227Z,1000.664
2023-05-01T05:51:58.220Z,1000.658
2023-05-01T05:52:28.226Z,1000.651
2023-05-01T05:52:58.242Z,1000.638
2023-05-01T05:53:28.242Z,1000.642
2023-05-01T05:53:58.224Z,1000.639